Time;durP1;ratioP1;P1;durP2;ratioP2;P2;SDS_P1;SDS_P2;PMS_P1;PMS_P2;Temp;Humidity;BMP_temperature;BMP_pressure;BME280_temperature;BME280_humidity;BME280_pressure;Samples;Min_cycle;Max_cycle;Signal;HPM_P1;HPM_P2
2023/12/19 00:01:35;;;;;;;42.90;39.90;;;;;;;;;;4213249;28;20036;-63
2023/12/19 00:03:36;;;;;;;42.40;39.47;;;;;;;;;;4213788;28;20130;-63
2023/12/19 00:05:41;;;;;;;40.15;37.85;;;;;;;;;;4201323;28;20120;-64
2023/12/19 00:07:43;;;;;;;37.05;34.75;;;;;;;;;;4196892;28;20146;-63
2023/12/19 00:09:45;;;;;;;34.83;32.92;;;;;;;;;;4211909;28;20083;-64
2023/12/19 00:11:46;;;;;;;48.85;44.20;;;;;;;;;;4213524;28;20040;-64
2023/12/19 00:13:48;;;;;;;66.35;59.20;;;;;;;;;;4213564;28;20126;-63
2023/12/19 00:15:50;;;;;;;59.42;53.33;;;;;;;;;;4213571;28;20492;-64
2023/12/19 00:17:51;;;;;;;60.00;53.93;;;;;;;;;;4213542;28;20036;-64
2023/12/19 00:19:55;;;;;;;60.30;54.27;;;;;;;;;;4213575;28;20051;-63
2023/12/19 00:21:57;;;;;;;58.55;52.83;;;;;;;;;;4213496;28;20040;-63
2023/12/19 00:23:59;;;;;;;57.87;52.43;;;;;;;;;;4213784;28;20091;-64
2023/12/19 00:26:00;;;;;;;54.33;49.53;;;;;;;;;;4213445;28;20285;-63
2023/12/19 00:28:02;;;;;;;48.03;43.90;;;;;;;;;;4213549;28;20044;-64
2023/12/19 00:30:04;;;;;;;46.93;43.37;;;;;;;;;;4213529;28;20058;-62
2023/12/19 00:32:06;;;;;;;47.63;43.83;;;;;;;;;;4213638;28;20290;-63
2023/12/19 00:34:08;;;;;;;54.67;49.70;;;;;;;;;;4213054;28;20450;-63
2023/12/19 00:36:16;;;;;;;49.37;45.67;;;;;;;;;;4196821;28;20051;-64
2023/12/19 00:38:18;;;;;;;50.38;46.67;;;;;;;;;;4195439;28;20039;-64
2023/12/19 00:40:19;;;;;;;52.88;48.28;;;;;;;;;;4196554;28;20408;-63
2023/12/19 00:42:22;;;;;;;49.67;46.38;;;;;;;;;;4196755;28;20037;-63
2023/12/19 00:44:23;;;;;;;51.67;47.65;;;;;;;;;;4196574;28;20310;-64
2023/12/19 00:46:25;;;;;;;51.15;46.85;;;;;;;;;;4196623;28;20124;-63
2023/12/19 00:48:26;;;;;;;51.92;47.42;;;;;;;;;;4196427;28;20044;-63
2023/12/19 00:50:28;;;;;;;66.50;57.90;;;;;;;;;;4196541;28;20040;-63
2023/12/19 00:52:30;;;;;;;53.78;48.83;;;;;;;;;;4203669;28;20090;-63
2023/12/19 00:54:32;;;;;;;53.63;49.22;;;;;;;;;;4213232;28;20087;-63
2023/12/19 00:56:34;;;;;;;55.55;50.67;;;;;;;;;;4213546;28;20299;-63
2023/12/19 00:58:36;;;;;;;54.80;49.25;;;;;;;;;;4213135;28;20040;-65
2023/12/19 01:00:38;;;;;;;54.55;49.75;;;;;;;;;;4212928;28;20090;-64
2023/12/19 01:02:40;;;;;;;56.78;51.20;;;;;;;;;;4216201;28;20032;-63
2023/12/19 01:04:42;;;;;;;51.58;46.97;;;;;;;;;;4210219;28;20068;-63
2023/12/19 01:06:44;;;;;;;49.43;45.87;;;;;;;;;;4199429;28;20123;-63
2023/12/19 01:08:46;;;;;;;53.90;49.63;;;;;;;;;;4206384;28;20654;-63
2023/12/19 01:10:47;;;;;;;53.42;49.03;;;;;;;;;;4214935;28;20039;-63
2023/12/19 01:12:49;;;;;;;55.63;50.95;;;;;;;;;;4216201;28;20476;-63
2023/12/19 01:14:51;;;;;;;53.63;49.07;;;;;;;;;;4214851;28;20130;-65
2023/12/19 01:16:52;;;;;;;53.70;49.33;;;;;;;;;;4207837;28;20090;-63
2023/12/19 01:18:54;;;;;;;55.03;50.40;;;;;;;;;;4199211;28;20098;-64
2023/12/19 01:20:56;;;;;;;48.30;44.50;;;;;;;;;;4199513;28;20060;-63
2023/12/19 01:22:58;;;;;;;50.03;46.10;;;;;;;;;;4199235;28;20544;-63
2023/12/19 01:24:59;;;;;;;50.97;47.40;;;;;;;;;;4199147;28;20040;-63
2023/12/19 01:27:01;;;;;;;50.93;47.30;;;;;;;;;;4194957;28;20036;-63
2023/12/19 01:29:03;;;;;;;46.95;43.60;;;;;;;;;;4182538;28;20048;-63
2023/12/19 01:31:05;;;;;;;53.20;48.85;;;;;;;;;;4188397;28;20067;-64
2023/12/19 01:33:07;;;;;;;51.03;46.83;;;;;;;;;;4198940;28;20056;-63
2023/12/19 01:35:09;;;;;;;53.35;49.20;;;;;;;;;;4199044;28;20041;-63
2023/12/19 01:37:11;;;;;;;58.00;53.42;;;;;;;;;;4198861;28;20068;-63
2023/12/19 01:39:12;;;;;;;56.28;52.03;;;;;;;;;;4199015;28;20198;-63
2023/12/19 01:41:14;;;;;;;55.40;50.80;;;;;;;;;;4198849;28;20052;-63
2023/12/19 01:43:19;;;;;;;52.85;48.95;;;;;;;;;;4198650;28;20087;-63
2023/12/19 01:45:22;;;;;;;38.20;35.97;;;;;;;;;;4198846;28;20063;-64
2023/12/19 01:47:24;;;;;;;35.38;33.70;;;;;;;;;;4198799;28;20459;-63
2023/12/19 01:49:25;;;;;;;34.87;33.07;;;;;;;;;;4198624;28;20039;-64
2023/12/19 01:51:27;;;;;;;39.28;37.17;;;;;;;;;;4198716;28;20036;-63
2023/12/19 01:53:29;;;;;;;41.90;39.50;;;;;;;;;;4213571;28;20388;-64
2023/12/19 01:55:30;;;;;;;40.88;38.15;;;;;;;;;;4215698;28;20089;-63
2023/12/19 01:57:32;;;;;;;42.55;39.75;;;;;;;;;;4214486;28;20403;-63
2023/12/19 01:59:35;;;;;;;46.95;43.47;;;;;;;;;;4215393;28;20051;-63
2023/12/19 02:01:37;;;;;;;54.17;49.95;;;;;;;;;;4214068;28;20516;-69
2023/12/19 02:03:40;;;;;;;54.50;50.50;;;;;;;;;;4207144;28;20044;-68
2023/12/19 02:05:44;;;;;;;49.75;46.00;;;;;;;;;;4198183;28;20044;-69
2023/12/19 02:07:45;;;;;;;50.92;47.15;;;;;;;;;;4198560;28;20037;-68
2023/12/19 02:09:47;;;;;;;52.47;48.67;;;;;;;;;;4213923;28;20032;-68
2023/12/19 02:11:49;;;;;;;51.53;47.38;;;;;;;;;;4215534;28;20044;-68
2023/12/19 02:13:50;;;;;;;50.58;46.30;;;;;;;;;;4215581;28;20048;-68
2023/12/19 02:15:52;;;;;;;51.65;47.78;;;;;;;;;;4215204;28;20119;-69
2023/12/19 02:17:53;;;;;;;55.47;50.73;;;;;;;;;;4215037;28;20028;-68
2023/12/19 02:19:55;;;;;;;52.80;48.53;;;;;;;;;;4215342;28;20032;-69
2023/12/19 02:21:57;;;;;;;54.05;49.90;;;;;;;;;;4211231;28;20071;-69
2023/12/19 02:23:58;;;;;;;53.53;49.43;;;;;;;;;;4198329;28;20044;-69
2023/12/19 02:26:00;;;;;;;49.30;45.60;;;;;;;;;;4197765;28;20285;-69
2023/12/19 02:28:02;;;;;;;48.60;45.80;;;;;;;;;;4197162;28;20676;-68
2023/12/19 02:30:04;;;;;;;43.03;40.55;;;;;;;;;;4197025;28;20057;-69
2023/12/19 02:32:06;;;;;;;40.53;38.17;;;;;;;;;;4197228;28;20041;-68
2023/12/19 02:34:07;;;;;;;41.37;39.03;;;;;;;;;;4197525;28;20120;-69
2023/12/19 02:36:09;;;;;;;40.95;38.92;;;;;;;;;;4197438;28;20040;-69
2023/12/19 02:38:11;;;;;;;38.63;35.97;;;;;;;;;;4197432;28;20037;-69
2023/12/19 02:40:12;;;;;;;42.97;40.33;;;;;;;;;;4197448;28;20040;-69
2023/12/19 02:42:14;;;;;;;49.63;46.00;;;;;;;;;;4197525;28;20451;-69
2023/12/19 02:44:15;;;;;;;47.00;43.75;;;;;;;;;;4197703;28;20290;-69
2023/12/19 02:46:17;;;;;;;43.13;39.92;;;;;;;;;;4197863;28;20090;-68
2023/12/19 02:48:19;;;;;;;43.28;40.17;;;;;;;;;;4197835;28;20367;-69
2023/12/19 02:50:20;;;;;;;50.13;46.50;;;;;;;;;;4197787;28;20119;-69
2023/12/19 02:52:22;;;;;;;46.50;43.25;;;;;;;;;;4197732;28;20102;-68
2023/12/19 02:54:24;;;;;;;48.03;44.78;;;;;;;;;;4197619;28;20117;-68
2023/12/19 02:56:25;;;;;;;51.20;47.45;;;;;;;;;;4197748;28;20463;-69
2023/12/19 02:58:27;;;;;;;52.60;48.95;;;;;;;;;;4197629;28;20124;-69
2023/12/19 03:00:28;;;;;;;52.88;49.20;;;;;;;;;;4197460;28;20064;-68
2023/12/19 03:02:30;;;;;;;48.53;45.40;;;;;;;;;;4197738;28;20043;-69
2023/12/19 03:04:32;;;;;;;49.78;45.95;;;;;;;;;;4197561;28;20138;-69
2023/12/19 03:06:34;;;;;;;48.00;44.70;;;;;;;;;;4197498;28;20079;-69
2023/12/19 03:08:35;;;;;;;51.40;47.92;;;;;;;;;;4202995;28;20401;-69
2023/12/19 03:10:37;;;;;;;48.40;44.70;;;;;;;;;;4214281;28;20122;-69
2023/12/19 03:12:39;;;;;;;48.50;45.53;;;;;;;;;;4214312;28;20067;-69
2023/12/19 03:14:40;;;;;;;46.33;42.90;;;;;;;;;;4214324;28;20051;-69
2023/12/19 03:16:42;;;;;;;50.10;46.63;;;;;;;;;;4214297;28;20093;-64
2023/12/19 03:18:44;;;;;;;50.47;46.72;;;;;;;;;;4214095;28;20562;-64
2023/12/19 03:20:45;;;;;;;51.30;47.67;;;;;;;;;;4214197;28;20549;-63
2023/12/19 03:22:47;;;;;;;48.88;45.53;;;;;;;;;;4214056;28;20044;-63
2023/12/19 03:24:49;;;;;;;48.77;45.60;;;;;;;;;;4197281;28;20709;-64
2023/12/19 03:26:50;;;;;;;48.97;45.58;;;;;;;;;;4197613;28;20090;-63
2023/12/19 03:28:52;;;;;;;48.42;45.22;;;;;;;;;;4197603;28;20037;-63
2023/12/19 03:30:55;;;;;;;48.47;45.33;;;;;;;;;;4197229;28;20583;-63
2023/12/19 03:32:57;;;;;;;51.63;48.08;;;;;;;;;;4197339;28;20041;-63
2023/12/19 03:34:59;;;;;;;47.35;44.25;;;;;;;;;;4197085;28;20097;-63
2023/12/19 03:37:00;;;;;;;47.53;43.95;;;;;;;;;;4195953;28;20056;-63
2023/12/19 03:39:02;;;;;;;46.90;44.00;;;;;;;;;;4195678;28;20079;-63
2023/12/19 03:41:05;;;;;;;47.63;44.53;;;;;;;;;;4197541;28;20036;-63
2023/12/19 03:43:08;;;;;;;44.95;41.95;;;;;;;;;;4197191;28;20040;-63
2023/12/19 03:45:09;;;;;;;40.83;38.45;;;;;;;;;;4179264;28;20045;-63
2023/12/19 03:47:12;;;;;;;49.07;45.83;;;;;;;;;;4197176;28;20066;-63
2023/12/19 03:49:13;;;;;;;47.22;43.97;;;;;;;;;;4197067;28;20569;-63
2023/12/19 03:51:15;;;;;;;45.25;42.67;;;;;;;;;;4196950;28;20563;-63
2023/12/19 03:53:17;;;;;;;46.30;43.53;;;;;;;;;;4195591;28;20139;-63
2023/12/19 03:55:18;;;;;;;41.10;38.45;;;;;;;;;;4196939;28;20519;-63
2023/12/19 03:57:20;;;;;;;48.13;44.70;;;;;;;;;;4197074;28;20135;-63
2023/12/19 03:59:22;;;;;;;46.83;43.80;;;;;;;;;;4197218;28;20298;-64
2023/12/19 04:01:25;;;;;;;49.42;45.97;;;;;;;;;;4196648;28;20044;-63
2023/12/19 04:03:27;;;;;;;47.63;44.55;;;;;;;;;;4197160;28;20090;-63
2023/12/19 04:05:28;;;;;;;46.70;43.60;;;;;;;;;;4195717;28;20074;-64
2023/12/19 04:07:32;;;;;;;43.50;41.33;;;;;;;;;;4180631;28;20041;-64
2023/12/19 04:09:34;;;;;;;41.10;38.60;;;;;;;;;;4207949;28;20048;-63
2023/12/19 04:11:35;;;;;;;34.97;33.17;;;;;;;;;;4213661;28;20400;-63
2023/12/19 04:13:38;;;;;;;38.05;36.55;;;;;;;;;;4213592;28;20040;-63
2023/12/19 04:15:39;;;;;;;40.05;37.83;;;;;;;;;;4213511;28;20040;-63
2023/12/19 04:17:41;;;;;;;38.15;36.28;;;;;;;;;;4213655;28;20510;-64
2023/12/19 04:19:43;;;;;;;43.07;40.50;;;;;;;;;;4207147;28;20035;-64
2023/12/19 04:21:44;;;;;;;45.92;43.13;;;;;;;;;;4180296;28;20283;-63
2023/12/19 04:23:46;;;;;;;47.72;44.92;;;;;;;;;;4179135;28;20033;-63
2023/12/19 04:25:47;;;;;;;44.80;42.13;;;;;;;;;;4193673;28;20123;-69
2023/12/19 04:27:49;;;;;;;41.47;39.37;;;;;;;;;;4197101;28;20078;-69
2023/12/19 04:29:54;;;;;;;44.42;42.03;;;;;;;;;;4196793;28;20076;-69
2023/12/19 04:31:56;;;;;;;47.35;44.78;;;;;;;;;;4196641;28;20464;-67
2023/12/19 04:33:58;;;;;;;43.33;40.92;;;;;;;;;;4196781;28;20060;-68
2023/12/19 04:36:00;;;;;;;46.97;44.25;;;;;;;;;;4197118;28;20460;-69
2023/12/19 04:38:01;;;;;;;43.83;41.50;;;;;;;;;;4199780;28;20473;-69
2023/12/19 04:40:03;;;;;;;44.40;42.20;;;;;;;;;;4199981;28;20123;-69
2023/12/19 04:42:08;;;;;;;45.75;43.22;;;;;;;;;;4199857;28;20041;-68
2023/12/19 04:44:09;;;;;;;43.25;41.00;;;;;;;;;;4199848;28;20036;-69
2023/12/19 04:46:11;;;;;;;46.28;43.72;;;;;;;;;;4199832;28;20048;-69
2023/12/19 04:48:13;;;;;;;46.63;43.88;;;;;;;;;;4198555;28;20048;-69
2023/12/19 04:50:14;;;;;;;49.53;46.20;;;;;;;;;;4199773;28;20106;-69
2023/12/19 04:52:16;;;;;;;48.65;45.25;;;;;;;;;;4199675;28;20063;-69
2023/12/19 04:54:18;;;;;;;44.13;41.38;;;;;;;;;;4199425;28;20041;-68
2023/12/19 04:56:19;;;;;;;44.17;41.78;;;;;;;;;;4199734;28;20032;-69
2023/12/19 04:58:21;;;;;;;43.60;40.80;;;;;;;;;;4200139;28;20066;-68
2023/12/19 05:00:22;;;;;;;43.08;40.42;;;;;;;;;;4198297;28;20075;-68
2023/12/19 05:02:24;;;;;;;42.43;39.73;;;;;;;;;;4199526;28;20037;-69
2023/12/19 05:04:26;;;;;;;47.80;44.60;;;;;;;;;;4199729;28;20111;-68
2023/12/19 05:06:30;;;;;;;44.38;41.65;;;;;;;;;;4199993;28;20072;-68
2023/12/19 05:08:32;;;;;;;46.83;44.15;;;;;;;;;;4197271;28;20516;-69
2023/12/19 05:10:33;;;;;;;48.13;45.40;;;;;;;;;;4199342;28;20495;-69
2023/12/19 05:12:35;;;;;;;48.95;45.33;;;;;;;;;;4199498;28;20138;-68
2023/12/19 05:14:36;;;;;;;45.35;42.75;;;;;;;;;;4198815;28;20396;-69
2023/12/19 05:16:38;;;;;;;43.53;40.85;;;;;;;;;;4199217;28;20036;-68
2023/12/19 05:18:41;;;;;;;46.50;43.35;;;;;;;;;;4199468;28;20040;-69
2023/12/19 05:20:43;;;;;;;44.40;41.75;;;;;;;;;;4197836;28;20063;-69
2023/12/19 05:22:45;;;;;;;45.83;43.07;;;;;;;;;;4199308;28;20055;-67
2023/12/19 05:24:47;;;;;;;48.45;45.55;;;;;;;;;;4199270;28;20044;-68
2023/12/19 05:26:48;;;;;;;48.27;45.13;;;;;;;;;;4199281;28;20113;-69
2023/12/19 05:28:50;;;;;;;48.17;45.30;;;;;;;;;;4199076;28;20037;-68
2023/12/19 05:30:55;;;;;;;42.63;39.57;;;;;;;;;;4197780;28;20060;-68
2023/12/19 05:32:58;;;;;;;38.80;36.65;;;;;;;;;;4199093;28;20666;-68
2023/12/19 05:34:59;;;;;;;40.72;38.58;;;;;;;;;;4206308;28;20080;-67
2023/12/19 05:37:01;;;;;;;39.70;37.60;;;;;;;;;;4190076;28;20048;-64
2023/12/19 05:39:03;;;;;;;42.40;40.20;;;;;;;;;;4188161;28;20447;-63
2023/12/19 05:41:05;;;;;;;38.20;36.60;;;;;;;;;;4199145;28;20036;-63
2023/12/19 05:43:07;;;;;;;39.72;37.80;;;;;;;;;;4199010;28;20060;-64
2023/12/19 05:45:09;;;;;;;39.88;37.70;;;;;;;;;;4206823;28;20040;-63
2023/12/19 05:47:11;;;;;;;37.33;35.63;;;;;;;;;;4215531;28;20070;-64
2023/12/19 05:49:13;;;;;;;39.40;37.72;;;;;;;;;;4214369;28;20051;-64
2023/12/19 05:51:15;;;;;;;40.87;39.00;;;;;;;;;;4215534;28;20188;-63
2023/12/19 05:53:16;;;;;;;39.83;38.03;;;;;;;;;;4201963;28;20117;-63
2023/12/19 05:55:21;;;;;;;36.72;34.83;;;;;;;;;;4197462;28;20165;-63
2023/12/19 05:57:22;;;;;;;42.47;40.13;;;;;;;;;;4198719;28;20051;-64
2023/12/19 05:59:24;;;;;;;44.70;42.03;;;;;;;;;;4198581;28;20040;-64
2023/12/19 06:01:26;;;;;;;61.47;56.38;;;;;;;;;;4198334;28;20040;-63
2023/12/19 06:03:27;;;;;;;48.67;45.50;;;;;;;;;;4198568;28;20044;-63
2023/12/19 06:05:29;;;;;;;47.78;44.78;;;;;;;;;;4197081;28;20044;-64
2023/12/19 06:07:31;;;;;;;52.60;48.30;;;;;;;;;;4181711;28;20041;-64
2023/12/19 06:09:33;;;;;;;53.88;49.90;;;;;;;;;;4208914;28;20074;-63
2023/12/19 06:11:34;;;;;;;49.25;46.20;;;;;;;;;;4214926;28;20060;-64
2023/12/19 06:13:36;;;;;;;49.13;45.53;;;;;;;;;;4198159;28;20199;-64
2023/12/19 06:15:38;;;;;;;47.25;44.55;;;;;;;;;;4199407;28;20045;-63
2023/12/19 06:17:41;;;;;;;44.83;42.35;;;;;;;;;;4193555;28;20044;-66
2023/12/19 06:19:42;;;;;;;46.47;43.78;;;;;;;;;;4181573;28;20114;-66
2023/12/19 06:21:44;;;;;;;47.20;44.28;;;;;;;;;;4180074;28;20496;-66
2023/12/19 06:23:46;;;;;;;56.67;53.03;;;;;;;;;;4201700;28;20035;-67
2023/12/19 06:25:47;;;;;;;48.03;45.20;;;;;;;;;;4201179;28;20532;-66
2023/12/19 06:27:49;;;;;;;46.47;43.97;;;;;;;;;;4188945;28;20039;-67
2023/12/19 06:29:51;;;;;;;46.40;43.93;;;;;;;;;;4198406;28;20064;-66
2023/12/19 06:31:52;;;;;;;46.78;44.28;;;;;;;;;;4198356;28;20124;-66
2023/12/19 06:33:54;;;;;;;47.17;44.45;;;;;;;;;;4198178;28;20044;-67
2023/12/19 06:35:56;;;;;;;46.92;44.30;;;;;;;;;;4197362;28;20045;-67
2023/12/19 06:37:57;;;;;;;39.33;37.40;;;;;;;;;;4202357;28;20055;-67
2023/12/19 06:40:00;;;;;;;38.60;36.87;;;;;;;;;;4197856;28;20040;-66
2023/12/19 06:42:02;;;;;;;40.40;38.38;;;;;;;;;;4197922;28;20766;-67
2023/12/19 06:44:03;;;;;;;47.15;44.10;;;;;;;;;;4210339;28;20123;-66
2023/12/19 06:46:13;;;;;;;39.33;37.50;;;;;;;;;;4215146;28;20040;-67
2023/12/19 06:48:15;;;;;;;40.65;38.65;;;;;;;;;;4214577;28;20071;-66
2023/12/19 06:50:18;;;;;;;39.63;37.87;;;;;;;;;;4214623;28;20040;-67
2023/12/19 06:52:20;;;;;;;42.65;40.65;;;;;;;;;;4214561;28;20450;-66
2023/12/19 06:54:22;;;;;;;39.93;38.20;;;;;;;;;;4214466;28;20059;-66
2023/12/19 06:56:27;;;;;;;39.90;38.00;;;;;;;;;;4214512;28;20281;-66
2023/12/19 06:58:31;;;;;;;44.20;42.17;;;;;;;;;;4214017;28;20044;-66
2023/12/19 07:00:33;;;;;;;38.65;37.05;;;;;;;;;;4214060;28;20515;-66
2023/12/19 07:02:37;;;;;;;39.40;37.50;;;;;;;;;;4214582;28;20561;-66
2023/12/19 07:04:39;;;;;;;47.47;44.42;;;;;;;;;;4210247;28;20060;-66
2023/12/19 07:06:40;;;;;;;60.85;54.80;;;;;;;;;;4197506;28;20062;-66
2023/12/19 07:08:42;;;;;;;64.65;57.60;;;;;;;;;;4203831;28;20040;-66
2023/12/19 07:10:48;;;;;;;91.13;74.45;;;;;;;;;;4214204;28;20397;-66
2023/12/19 07:12:49;;;;;;;62.72;56.78;;;;;;;;;;4214212;28;20047;-67
2023/12/19 07:14:51;;;;;;;54.00;49.10;;;;;;;;;;4197961;28;20098;-66
2023/12/19 07:16:53;;;;;;;48.85;45.63;;;;;;;;;;4197350;28;20105;-67
2023/12/19 07:18:55;;;;;;;38.25;36.67;;;;;;;;;;4197820;28;20082;-66
2023/12/19 07:20:56;;;;;;;39.40;37.73;;;;;;;;;;4197456;28;20115;-66
2023/12/19 07:22:58;;;;;;;37.35;36.03;;;;;;;;;;4197292;28;20291;-66
2023/12/19 07:25:00;;;;;;;41.55;39.83;;;;;;;;;;4196600;28;20060;-66
2023/12/19 07:27:01;;;;;;;39.30;38.08;;;;;;;;;;4200573;28;20427;-66
2023/12/19 07:29:04;;;;;;;38.17;36.70;;;;;;;;;;4197312;28;20131;-66
2023/12/19 07:31:06;;;;;;;36.42;34.83;;;;;;;;;;4196829;28;20086;-67
2023/12/19 07:33:08;;;;;;;39.20;37.80;;;;;;;;;;4197593;28;20504;-66
2023/12/19 07:35:09;;;;;;;38.13;36.10;;;;;;;;;;4197512;28;20777;-66
2023/12/19 07:37:11;;;;;;;46.95;43.10;;;;;;;;;;4197236;28;20476;-66
2023/12/19 07:39:13;;;;;;;79.13;61.27;;;;;;;;;;4195888;28;20032;-66
2023/12/19 07:41:15;;;;;;;56.65;50.90;;;;;;;;;;4197088;28;20045;-66
2023/12/19 07:43:16;;;;;;;38.00;36.27;;;;;;;;;;4196931;28;20036;-66
2023/12/19 07:45:18;;;;;;;53.57;48.57;;;;;;;;;;4197102;28;20033;-66
2023/12/19 07:47:19;;;;;;;56.45;51.00;;;;;;;;;;4197217;28;20045;-66
2023/12/19 07:49:21;;;;;;;43.35;40.00;;;;;;;;;;4197288;28;20496;-66
2023/12/19 07:51:23;;;;;;;48.38;43.80;;;;;;;;;;4197246;28;20044;-66
2023/12/19 07:53:26;;;;;;;60.50;55.00;;;;;;;;;;4210694;28;20427;-66
2023/12/19 07:55:28;;;;;;;91.40;70.70;;;;;;;;;;4214042;28;20051;-67
2023/12/19 07:57:29;;;;;;;142.73;100.43;;;;;;;;;;4212762;28;20294;-66
2023/12/19 07:59:31;;;;;;;44.45;41.47;;;;;;;;;;4213832;28;20039;-66
2023/12/19 08:01:33;;;;;;;40.55;38.55;;;;;;;;;;4213546;28;20036;-66
2023/12/19 08:03:35;;;;;;;43.08;40.50;;;;;;;;;;4213619;28;20063;-66
2023/12/19 08:05:36;;;;;;;38.22;35.72;;;;;;;;;;4201371;28;20040;-66
2023/12/19 08:07:38;;;;;;;42.05;39.42;;;;;;;;;;4197430;28;20120;-66
2023/12/19 08:09:40;;;;;;;45.30;42.53;;;;;;;;;;4207642;28;20036;-66
2023/12/19 08:11:41;;;;;;;63.10;57.63;;;;;;;;;;4200364;28;20051;-66
2023/12/19 08:13:44;;;;;;;81.97;72.47;;;;;;;;;;4200322;28;20045;-66
2023/12/19 08:15:49;;;;;;;50.38;46.97;;;;;;;;;;4198904;28;20299;-66
2023/12/19 08:17:51;;;;;;;46.22;43.38;;;;;;;;;;4200171;28;20048;-66
2023/12/19 08:19:53;;;;;;;38.80;36.38;;;;;;;;;;4200078;28;20043;-66
2023/12/19 08:21:55;;;;;;;38.70;36.13;;;;;;;;;;4183800;28;20040;-66
2023/12/19 08:23:57;;;;;;;39.58;37.72;;;;;;;;;;4183595;28;20310;-66
2023/12/19 08:25:58;;;;;;;42.53;40.33;;;;;;;;;;4183506;28;20095;-66
2023/12/19 08:28:01;;;;;;;43.25;41.35;;;;;;;;;;4183579;28;20044;-66
2023/12/19 08:30:03;;;;;;;41.55;39.63;;;;;;;;;;4183475;28;20076;-66
2023/12/19 08:32:05;;;;;;;41.35;39.38;;;;;;;;;;4183442;28;20080;-66
2023/12/19 08:34:06;;;;;;;38.07;36.60;;;;;;;;;;4183526;28;20358;-66
2023/12/19 08:36:08;;;;;;;39.42;37.72;;;;;;;;;;4183391;28;20318;-66
2023/12/19 08:38:30;;;;;;;36.45;34.88;;;;;;;;;;4183571;28;20079;-66
2023/12/19 08:40:31;;;;;;;37.80;36.45;;;;;;;;;;4183485;28;20045;-66
2023/12/19 08:42:33;;;;;;;39.53;37.83;;;;;;;;;;4183642;28;20063;-66
2023/12/19 08:44:35;;;;;;;38.35;36.55;;;;;;;;;;4183412;28;20052;-66
2023/12/19 08:46:36;;;;;;;39.70;37.75;;;;;;;;;;4183312;28;20500;-66
2023/12/19 08:48:38;;;;;;;42.17;39.58;;;;;;;;;;4183153;28;20167;-66
2023/12/19 08:50:39;;;;;;;47.87;45.07;;;;;;;;;;4183438;28;20083;-66
2023/12/19 08:52:42;;;;;;;35.50;33.97;;;;;;;;;;4199979;28;20043;-66
2023/12/19 08:54:44;;;;;;;34.10;32.63;;;;;;;;;;4216333;28;20071;-66
2023/12/19 08:56:46;;;;;;;34.22;33.10;;;;;;;;;;4216663;28;20105;-66
2023/12/19 08:58:48;;;;;;;37.83;35.55;;;;;;;;;;4216501;28;20443;-66
2023/12/19 09:00:50;;;;;;;42.22;39.22;;;;;;;;;;4211855;28;20488;-66
2023/12/19 09:02:52;;;;;;;42.80;40.43;;;;;;;;;;4199572;28;20060;-66
2023/12/19 09:04:54;;;;;;;51.03;46.72;;;;;;;;;;4199423;28;20283;-66
2023/12/19 09:06:56;;;;;;;59.65;53.40;;;;;;;;;;4199580;28;20036;-66
2023/12/19 09:08:58;;;;;;;47.40;43.10;;;;;;;;;;4208055;28;20043;-66
2023/12/19 09:11:00;;;;;;;48.33;45.15;;;;;;;;;;4216106;28;20530;-66
2023/12/19 09:13:01;;;;;;;42.10;39.30;;;;;;;;;;4216325;28;20044;-66
2023/12/19 09:15:05;;;;;;;41.92;39.40;;;;;;;;;;4200356;28;20049;-66
2023/12/19 09:17:07;;;;;;;37.55;35.47;;;;;;;;;;4199337;28;20396;-66
2023/12/19 09:19:14;;;;;;;37.78;35.75;;;;;;;;;;4199476;28;20040;-66
2023/12/19 09:21:16;;;;;;;41.17;37.92;;;;;;;;;;4199043;28;20046;-66
2023/12/19 09:23:18;;;;;;;41.45;38.70;;;;;;;;;;4198585;28;20492;-66
2023/12/19 09:25:20;;;;;;;37.90;35.60;;;;;;;;;;4199182;28;20041;-67
2023/12/19 09:27:22;;;;;;;35.40;33.42;;;;;;;;;;4199168;28;20082;-67
2023/12/19 09:29:25;;;;;;;33.58;32.13;;;;;;;;;;4199206;28;20501;-67
2023/12/19 09:31:27;;;;;;;27.00;25.77;;;;;;;;;;4199023;28;20050;-66
2023/12/19 09:33:29;;;;;;;28.37;27.03;;;;;;;;;;4199130;28;20124;-67
2023/12/19 09:35:30;;;;;;;25.37;24.00;;;;;;;;;;4199405;28;20285;-67
2023/12/19 09:37:32;;;;;;;33.95;31.15;;;;;;;;;;4199085;28;20098;-67
2023/12/19 09:39:34;;;;;;;26.02;24.52;;;;;;;;;;4199236;28;20115;-67
2023/12/19 09:41:37;;;;;;;22.10;21.20;;;;;;;;;;4198940;28;20483;-67
2023/12/19 09:43:38;;;;;;;;;;;;;;;;;;4199834;28;20504;-67
2023/12/19 09:45:40;;;;;;;30.52;28.92;;;;;;;;;;4198888;28;19920;-67
2023/12/19 09:47:45;;;;;;;28.02;26.73;;;;;;;;;;4199022;28;20094;-67
2023/12/19 09:49:49;;;;;;;28.30;27.00;;;;;;;;;;4198991;28;20041;-67
2023/12/19 09:51:52;;;;;;;28.83;27.08;;;;;;;;;;4198653;28;20412;-67
2023/12/19 09:53:55;;;;;;;29.08;27.45;;;;;;;;;;4198678;28;20071;-67
2023/12/19 09:55:56;;;;;;;25.42;23.88;;;;;;;;;;4198735;28;20040;-67
2023/12/19 09:57:59;;;;;;;27.75;25.98;;;;;;;;;;4198885;28;20044;-67
2023/12/19 10:00:07;;;;;;;20.02;19.23;;;;;;;;;;4198657;28;20400;-67
2023/12/19 10:02:08;;;;;;;16.38;15.77;;;;;;;;;;4198308;28;20063;-67
2023/12/19 10:04:13;;;;;;;19.40;18.88;;;;;;;;;;4197130;28;20059;-67
2023/12/19 10:06:17;;;;;;;15.88;15.48;;;;;;;;;;4197537;28;20040;-67
2023/12/19 10:08:19;;;;;;;16.73;16.15;;;;;;;;;;4201651;28;20032;-67
2023/12/19 10:10:26;;;;;;;15.93;15.35;;;;;;;;;;4207489;28;20139;-67
2023/12/19 10:12:29;;;;;;;12.90;12.40;;;;;;;;;;4198341;28;20055;-67
2023/12/19 10:14:40;;;;;;;9.45;8.73;;;;;;;;;;4198404;28;20130;-66
2023/12/19 10:16:41;;;;;;;8.55;8.38;;;;;;;;;;4198569;28;20044;-67
2023/12/19 10:18:43;;;;;;;6.10;6.00;;;;;;;;;;4198400;28;20049;-67
2023/12/19 10:20:48;;;;;;;9.43;9.00;;;;;;;;;;4198379;28;20058;-66
2023/12/19 10:23:00;;;;;;;9.38;9.07;;;;;;;;;;4196675;28;20500;-66
2023/12/19 10:25:03;;;;;;;10.73;10.13;;;;;;;;;;4198254;28;20048;-66
2023/12/19 10:27:06;;;;;;;12.40;11.90;;;;;;;;;;4198428;28;20051;-66
2023/12/19 10:29:07;;;;;;;17.10;15.95;;;;;;;;;;4198358;28;20119;-66
2023/12/19 10:31:11;;;;;;;17.48;15.93;;;;;;;;;;4198218;28;20451;-67
2023/12/19 10:33:14;;;;;;;14.75;13.32;;;;;;;;;;4197924;28;20420;-67
2023/12/19 10:35:16;;;;;;;14.48;13.48;;;;;;;;;;4197571;28;20093;-66
2023/12/19 10:37:18;;;;;;;15.00;14.05;;;;;;;;;;4198140;28;20459;-66
2023/12/19 10:39:20;;;;;;;12.00;11.33;;;;;;;;;;4198128;28;20040;-66
2023/12/19 10:41:22;;;;;;;11.10;10.23;;;;;;;;;;4196536;28;20382;-66
2023/12/19 10:43:24;;;;;;;10.35;9.70;;;;;;;;;;4197993;28;20130;-66
2023/12/19 10:45:26;;;;;;;13.65;11.07;;;;;;;;;;4197840;28;20452;-66
2023/12/19 10:47:28;;;;;;;13.85;12.85;;;;;;;;;;4198225;28;20047;-66
2023/12/19 10:49:30;;;;;;;11.83;11.13;;;;;;;;;;4197755;28;20050;-66
2023/12/19 10:51:32;;;;;;;17.35;12.55;;;;;;;;;;4197671;28;20460;-66
2023/12/19 10:53:36;;;;;;;11.95;10.93;;;;;;;;;;4197411;28;20049;-66
2023/12/19 10:55:44;;;;;;;15.40;13.60;;;;;;;;;;4197681;28;20531;-66
2023/12/19 10:57:46;;;;;;;12.10;11.20;;;;;;;;;;4195586;28;20079;-66
2023/12/19 10:59:57;;;;;;;9.00;8.30;;;;;;;;;;4197755;28;20068;-66
2023/12/19 11:02:23;;;;;;;16.48;14.77;;;;;;;;;;4197301;28;20048;-66
2023/12/19 11:04:30;;;;;;;17.13;15.38;;;;;;;;;;4179707;28;20108;-66
2023/12/19 11:06:35;;;;;;;12.75;11.18;;;;;;;;;;4206315;28;20044;-66
2023/12/19 11:08:39;;;;;;;17.33;15.68;;;;;;;;;;4202193;28;20046;-66
2023/12/19 11:10:45;;;;;;;20.08;17.98;;;;;;;;;;4189468;28;20436;-66
2023/12/19 11:12:48;;;;;;;16.88;15.50;;;;;;;;;;4200932;28;20044;-65
2023/12/19 11:14:50;;;;;;;19.08;14.45;;;;;;;;;;4203998;28;20068;-65
2023/12/19 11:17:03;;;;;;;12.23;5.57;;;;;;;;;;4199694;28;20496;-65
2023/12/19 11:19:12;;;;;;;4.97;4.82;;;;;;;;;;4197443;28;20040;-66
2023/12/19 11:21:19;;;;;;;4.15;3.97;;;;;;;;;;4201870;28;20037;-65
2023/12/19 11:23:36;;;;;;;3.65;3.55;;;;;;;;;;4199985;28;20040;-65
2023/12/19 11:25:40;;;;;;;3.38;3.28;;;;;;;;;;4203483;28;20511;-65
2023/12/19 11:27:43;;;;;;;3.08;2.97;;;;;;;;;;4197478;28;20051;-67
2023/12/19 11:29:46;;;;;;;5.60;5.30;;;;;;;;;;4197267;28;20476;-67
2023/12/19 11:31:48;;;;;;;5.47;5.25;;;;;;;;;;4197608;28;20068;-67
2023/12/19 11:33:50;;;;;;;5.30;4.47;;;;;;;;;;4197283;28;20040;-67
2023/12/19 11:35:52;;;;;;;6.18;4.30;;;;;;;;;;4197287;28;20032;-67
2023/12/19 11:38:13;;;;;;;3.80;3.67;;;;;;;;;;4202688;28;20469;-66
2023/12/19 11:40:38;;;;;;;4.45;4.25;;;;;;;;;;4187113;28;20051;-67
2023/12/19 11:42:40;;;;;;;10.00;9.30;;;;;;;;;;4200830;28;20527;-66
2023/12/19 11:44:43;;;;;;;17.90;14.23;;;;;;;;;;4196186;28;20040;-67
2023/12/19 11:46:44;;;;;;;25.17;18.27;;;;;;;;;;4194125;28;20547;-65
2023/12/19 11:48:50;;;;;;;31.58;22.98;;;;;;;;;;4180813;28;20060;-66
2023/12/19 11:50:51;;;;;;;13.77;12.48;;;;;;;;;;4194767;28;20047;-65
2023/12/19 11:52:53;;;;;;;16.73;14.75;;;;;;;;;;4198206;28;20556;-65
2023/12/19 11:54:56;;;;;;;11.40;10.43;;;;;;;;;;4200861;28;20051;-65